Padron, Spain
Current Conditions -  °F | °C
As of 7:30 PM on Sunday 21 Dec 2014 (Local Time) from LEST Reporting Station
Clear Clear  
Wind Chill: 44°   Ceiling: Unl
Heat Index: 46°   Visibility: 6mi
Dew Point: 45°   Wind: 5mph
Humidity: 93%   Direction: 100°E
Pressure: 30.48"   Gusts: NA
Location:  42.74°N, 8.66°W
Report Text: LEST 211830Z 10004KT 9000 NSC 08/07 Q1032 NOSIG
Loading
Personal Weather Stations






























Interactive Weather Map New forecast layout! Learn more

10-Day Weather Forecast

Advertisements
Track Severe Weather on mobile